createdAt,value
2019-05-09T00:02:24.331Z,10.50
2019-05-09T00:04:54.724Z,10.50
2019-05-09T00:07:25.133Z,10.60
2019-05-09T00:09:55.840Z,10.60
2019-05-09T00:12:26.259Z,10.60
2019-05-09T00:14:57.054Z,10.60
2019-05-09T00:17:27.522Z,10.60
2019-05-09T00:20:03.396Z,10.60
2019-05-09T00:22:33.337Z,10.60
2019-05-09T00:25:03.983Z,10.60
2019-05-09T00:27:34.430Z,10.60
2019-05-09T00:30:05.282Z,10.60
2019-05-09T00:32:42.941Z,10.50
2019-05-09T00:35:23.362Z,10.50
2019-05-09T00:38:05.076Z,10.50
2019-05-09T00:40:35.474Z,10.40
2019-05-09T00:43:05.931Z,10.50
2019-05-09T00:46:01.020Z,10.50
2019-05-09T00:48:49.930Z,10.50
2019-05-09T00:51:20.404Z,10.50
2019-05-09T00:53:50.851Z,10.50
2019-05-09T00:56:23.742Z,10.30
2019-05-09T00:58:53.788Z,10.20
2019-05-09T01:01:24.622Z,10.10
2019-05-09T01:03:55.012Z,9.90
2019-05-09T01:06:25.442Z,9.80
2019-05-09T01:08:55.917Z,9.80
2019-05-09T01:11:26.309Z,9.80
2019-05-09T01:13:56.829Z,9.80
2019-05-09T01:16:27.248Z,9.90
2019-05-09T01:18:57.703Z,9.90
2019-05-09T01:21:28.102Z,9.80
2019-05-09T01:23:58.669Z,9.80
2019-05-09T01:26:28.998Z,9.90
2019-05-09T01:28:59.537Z,9.90
2019-05-09T01:31:30.013Z,10.00
2019-05-09T01:34:18.337Z,10.10
2019-05-09T01:37:04.492Z,10.00
2019-05-09T01:39:36.569Z,10.00
2019-05-09T01:42:07.420Z,10.00
2019-05-09T01:44:37.881Z,10.00
2019-05-09T01:47:08.358Z,9.80
2019-05-09T01:49:38.837Z,9.80
2019-05-09T01:52:09.339Z,9.70
2019-05-09T01:54:43.463Z,9.70
2019-05-09T01:57:13.860Z,9.70
2019-05-09T01:59:44.523Z,9.70
2019-05-09T02:02:14.954Z,9.70
2019-05-09T02:04:45.553Z,9.70
2019-05-09T02:07:16.034Z,9.50
2019-05-09T02:09:46.414Z,9.50
2019-05-09T02:12:16.813Z,9.50
2019-05-09T02:15:00.348Z,9.40
2019-05-09T02:17:57.327Z,9.40
2019-05-09T02:20:15.898Z,9.50
2019-05-09T02:22:46.454Z,9.50
2019-05-09T02:25:17.039Z,9.50
2019-05-09T02:27:47.487Z,9.50
2019-05-09T02:30:18.291Z,9.60
2019-05-09T02:32:48.728Z,9.60
2019-05-09T02:35:20.258Z,9.60
2019-05-09T02:37:50.731Z,9.60
2019-05-09T02:40:21.124Z,9.60
2019-05-09T02:42:51.526Z,9.60
2019-05-09T02:45:23.630Z,9.70
2019-05-09T02:47:54.069Z,9.70
2019-05-09T02:50:28.543Z,9.60
2019-05-09T02:52:59.082Z,9.60
2019-05-09T02:55:29.692Z,9.50
2019-05-09T02:58:00.918Z,9.50
2019-05-09T03:00:42.852Z,9.50
2019-05-09T03:03:21.826Z,9.60
2019-05-09T03:05:52.231Z,9.60
2019-05-09T03:08:22.670Z,9.50
2019-05-09T03:10:53.043Z,9.60
2019-05-09T03:13:23.468Z,9.60
2019-05-09T03:15:58.657Z,9.70
2019-05-09T03:18:28.756Z,9.80
2019-05-09T03:21:08.654Z,9.80
2019-05-09T03:23:39.052Z,9.80
2019-05-09T03:26:11.190Z,9.90
2019-05-09T03:29:12.722Z,9.90
2019-05-09T03:31:44.145Z,9.80
2019-05-09T03:34:14.838Z,9.80
2019-05-09T03:36:47.579Z,9.90
2019-05-09T03:39:18.519Z,9.80
2019-05-09T03:41:49.058Z,9.70
2019-05-09T03:44:19.507Z,9.70
2019-05-09T03:47:02.468Z,9.80
2019-05-09T03:49:32.917Z,9.90
2019-05-09T03:52:03.317Z,9.80
2019-05-09T03:54:33.756Z,9.80
2019-05-09T03:57:11.099Z,9.90
2019-05-09T03:59:41.534Z,10.00
2019-05-09T04:02:12.111Z,10.10
2019-05-09T04:04:42.498Z,10.20
2019-05-09T04:07:13.002Z,10.30
2019-05-09T04:09:43.374Z,10.40
2019-05-09T04:12:13.847Z,10.40
2019-05-09T04:14:44.283Z,10.50
2019-05-09T04:17:15.304Z,10.50
2019-05-09T04:19:47.701Z,10.50
2019-05-09T04:22:18.333Z,10.60
2019-05-09T04:24:49.534Z,10.60
2019-05-09T04:27:25.544Z,10.70
2019-05-09T04:29:57.451Z,10.80
2019-05-09T04:32:28.061Z,10.80
2019-05-09T04:34:58.750Z,11.00
2019-05-09T04:37:31.116Z,11.00
2019-05-09T04:40:03.472Z,11.10
2019-05-09T04:42:34.984Z,11.30
2019-05-09T04:45:17.638Z,11.40
2019-05-09T04:47:47.795Z,11.50
2019-05-09T04:50:23.485Z,11.60
2019-05-09T04:52:50.453Z,11.70
2019-05-09T04:55:22.748Z,11.80
2019-05-09T04:57:53.196Z,11.60
2019-05-09T05:00:30.563Z,11.50
2019-05-09T05:03:01.015Z,11.50
2019-05-09T05:05:31.429Z,11.40
2019-05-09T05:08:01.833Z,11.40
2019-05-09T05:10:32.262Z,11.50
2019-05-09T05:13:02.671Z,11.70
2019-05-09T05:15:33.195Z,11.80
2019-05-09T05:18:03.623Z,11.90
2019-05-09T05:20:34.450Z,12.00
2019-05-09T05:23:12.424Z,12.10
2019-05-09T05:25:43.098Z,12.30
2019-05-09T05:28:13.561Z,12.40
2019-05-09T05:30:44.026Z,12.50
2019-05-09T05:33:53.373Z,12.50
2019-05-09T05:36:21.445Z,12.80
2019-05-09T05:38:51.844Z,12.90
2019-05-09T05:41:22.455Z,12.90
2019-05-09T05:43:52.901Z,12.80
2019-05-09T05:46:54.481Z,12.70
2019-05-09T05:49:25.160Z,12.60
2019-05-09T05:51:57.636Z,12.60
2019-05-09T05:54:27.845Z,12.60
2019-05-09T05:56:58.254Z,12.70
2019-05-09T05:59:28.898Z,12.80
2019-05-09T06:01:59.440Z,12.80
2019-05-09T06:04:29.969Z,12.80
2019-05-09T06:07:00.431Z,12.80
2019-05-09T06:09:30.819Z,12.80
2019-05-09T06:12:01.311Z,12.80
2019-05-09T06:14:31.794Z,12.70
2019-05-09T06:17:02.186Z,12.70
2019-05-09T06:19:32.619Z,12.50
2019-05-09T06:22:03.023Z,12.40
2019-05-09T06:24:33.436Z,12.30
2019-05-09T06:27:06.984Z,12.20
2019-05-09T06:29:38.387Z,12.10
2019-05-09T06:32:08.261Z,12.10
2019-05-09T06:34:41.982Z,12.00
2019-05-09T06:37:10.851Z,12.00
2019-05-09T06:39:41.297Z,11.80
2019-05-09T06:42:11.703Z,11.90
2019-05-09T06:45:10.009Z,11.90
2019-05-09T06:47:42.908Z,11.90
2019-05-09T06:50:15.284Z,12.00
2019-05-09T06:52:47.856Z,12.20
2019-05-09T06:55:18.007Z,12.30
2019-05-09T06:57:49.053Z,12.20
2019-05-09T07:00:39.058Z,12.10
2019-05-09T07:03:13.485Z,12.10
2019-05-09T07:06:04.643Z,11.90
2019-05-09T07:08:39.733Z,11.80
2019-05-09T07:11:10.128Z,11.70
2019-05-09T07:13:40.569Z,11.70
2019-05-09T07:16:11.249Z,11.70
2019-05-09T07:18:41.644Z,11.60
2019-05-09T07:21:12.187Z,11.60
2019-05-09T07:23:42.659Z,11.60
2019-05-09T07:26:17.399Z,11.70
2019-05-09T07:28:48.610Z,11.80
2019-05-09T07:31:32.593Z,11.90
2019-05-09T07:34:10.323Z,12.20
2019-05-09T07:36:40.780Z,12.30
2019-05-09T07:39:11.182Z,12.20
2019-05-09T07:41:41.653Z,12.20
2019-05-09T07:44:12.039Z,12.20
2019-05-09T07:47:10.681Z,12.10
2019-05-09T07:49:41.087Z,12.00
2019-05-09T07:52:11.564Z,11.80
2019-05-09T07:54:41.993Z,11.70
2019-05-09T07:57:12.455Z,11.70
2019-05-09T07:59:42.855Z,11.70
2019-05-09T08:02:13.291Z,11.70
2019-05-09T08:04:43.685Z,11.60
2019-05-09T08:07:14.080Z,11.60
2019-05-09T08:09:44.497Z,11.60
2019-05-09T08:12:14.937Z,11.70
2019-05-09T08:15:02.901Z,11.80
2019-05-09T08:17:18.198Z,12.00
2019-05-09T08:19:48.767Z,12.00
2019-05-09T08:22:24.778Z,12.00
2019-05-09T08:24:51.431Z,12.00
2019-05-09T08:27:21.857Z,12.10
2019-05-09T08:29:52.409Z,12.20
2019-05-09T08:32:22.816Z,12.30
2019-05-09T08:34:53.274Z,12.40
2019-05-09T08:37:23.721Z,12.20
2019-05-09T08:39:54.139Z,12.00
2019-05-09T08:42:24.541Z,12.00
2019-05-09T08:44:57.617Z,11.80
2019-05-09T08:47:27.884Z,11.60
2019-05-09T08:50:29.585Z,11.60
2019-05-09T08:52:59.981Z,11.50
2019-05-09T08:55:30.687Z,11.50
2019-05-09T08:58:01.111Z,11.60
2019-05-09T09:00:31.701Z,11.60
2019-05-09T09:03:02.093Z,11.60
2019-05-09T09:05:33.098Z,11.40
2019-05-09T09:08:03.551Z,11.40
2019-05-09T09:10:34.043Z,11.30
2019-05-09T09:13:04.490Z,11.30
2019-05-09T09:16:02.924Z,11.30
2019-05-09T09:18:08.519Z,11.40
2019-05-09T09:20:39.718Z,11.30
2019-05-09T09:23:10.185Z,11.30
2019-05-09T09:25:40.874Z,11.40
2019-05-09T09:28:11.719Z,11.50
2019-05-09T09:30:42.295Z,11.50
2019-05-09T09:33:13.935Z,11.40
2019-05-09T09:35:44.548Z,11.40
2019-05-09T09:38:15.044Z,11.30
2019-05-09T09:40:47.578Z,11.20
2019-05-09T09:43:17.897Z,11.30
2019-05-09T09:46:05.814Z,11.20
2019-05-09T09:48:20.676Z,11.20
2019-05-09T09:50:51.889Z,11.30
2019-05-09T09:53:22.490Z,11.20
2019-05-09T09:55:52.943Z,11.10
2019-05-09T09:58:23.350Z,11.20
2019-05-09T10:01:11.053Z,11.30
2019-05-09T10:03:41.522Z,11.20
2019-05-09T10:06:11.908Z,11.20
2019-05-09T10:08:42.467Z,11.20
2019-05-09T10:11:12.841Z,11.20
2019-05-09T10:13:43.629Z,11.20
2019-05-09T10:16:42.285Z,11.20
2019-05-09T10:19:18.661Z,11.20
2019-05-09T10:21:52.532Z,11.30
2019-05-09T10:24:22.926Z,11.50
2019-05-09T10:27:10.281Z,11.60
2019-05-09T10:29:40.721Z,11.60
2019-05-09T10:32:14.906Z,11.60
2019-05-09T10:34:47.981Z,11.60
2019-05-09T10:37:18.509Z,11.60
2019-05-09T10:39:49.346Z,11.60
2019-05-09T10:42:44.605Z,11.70
2019-05-09T10:45:41.047Z,11.60
2019-05-09T10:48:11.709Z,11.60
2019-05-09T10:50:45.408Z,11.70
2019-05-09T10:53:14.305Z,11.60
2019-05-09T10:55:44.919Z,11.70
2019-05-09T10:58:15.667Z,11.90
2019-05-09T11:00:48.212Z,12.10
2019-05-09T11:03:18.567Z,12.30
2019-05-09T11:05:49.066Z,12.30
2019-05-09T11:08:19.486Z,12.30
2019-05-09T11:10:50.331Z,12.30
2019-05-09T11:13:20.770Z,12.40
2019-05-09T11:15:51.276Z,12.50
2019-05-09T11:18:21.710Z,12.60
2019-05-09T11:20:52.692Z,12.70
2019-05-09T11:23:23.133Z,12.90
2019-05-09T11:25:53.957Z,12.90
2019-05-09T11:28:24.356Z,12.90
2019-05-09T11:30:55.250Z,12.90
2019-05-09T11:33:27.798Z,12.90
2019-05-09T11:35:58.174Z,12.90
2019-05-09T11:38:34.622Z,12.90
2019-05-09T11:41:00.960Z,12.80
2019-05-09T11:43:31.392Z,12.80
2019-05-09T11:46:01.822Z,12.70
2019-05-09T11:48:34.596Z,12.80
2019-05-09T11:51:05.310Z,12.90
2019-05-09T11:53:35.761Z,13.00
2019-05-09T11:56:08.206Z,13.10
2019-05-09T11:58:38.372Z,13.00
2019-05-09T12:01:08.841Z,12.90
2019-05-09T12:03:39.289Z,12.90
2019-05-09T12:06:09.740Z,13.00
2019-05-09T12:08:40.234Z,13.00
2019-05-09T12:11:10.667Z,13.10
2019-05-09T12:13:41.123Z,13.10
2019-05-09T12:16:11.901Z,13.20
2019-05-09T12:18:42.380Z,13.20
2019-05-09T12:21:12.821Z,13.20
2019-05-09T12:23:43.260Z,13.20
2019-05-09T12:26:13.654Z,13.10
2019-05-09T12:28:44.086Z,12.80
2019-05-09T12:31:18.134Z,13.00
2019-05-09T12:33:49.055Z,13.00
2019-05-09T12:36:19.688Z,13.10
2019-05-09T12:38:50.330Z,13.10
2019-05-09T12:41:20.850Z,13.10
2019-05-09T12:43:51.307Z,13.10
2019-05-09T12:46:21.800Z,13.10
2019-05-09T12:48:52.326Z,13.10
2019-05-09T12:51:22.802Z,13.10
2019-05-09T12:53:53.194Z,13.10
2019-05-09T12:56:28.183Z,13.20
2019-05-09T12:58:58.254Z,13.10
2019-05-09T13:01:28.753Z,13.10
2019-05-09T13:03:59.214Z,13.20
2019-05-09T13:06:29.926Z,13.30
2019-05-09T13:09:00.592Z,13.40
2019-05-09T13:11:31.286Z,13.50
2019-05-09T13:14:02.039Z,13.50
2019-05-09T13:16:57.539Z,13.40
2019-05-09T13:19:34.024Z,13.40
2019-05-09T13:22:04.510Z,13.50
2019-05-09T13:24:34.894Z,13.50
2019-05-09T13:27:07.670Z,13.50
2019-05-09T13:29:38.232Z,13.60
2019-05-09T13:32:09.089Z,13.60
2019-05-09T13:34:39.505Z,13.70
2019-05-09T13:37:09.955Z,13.70
2019-05-09T13:39:41.202Z,13.80
2019-05-09T13:42:11.641Z,13.90
2019-05-09T13:44:42.376Z,13.90
2019-05-09T13:47:12.855Z,14.00
2019-05-09T13:49:43.467Z,14.10
2019-05-09T13:52:14.333Z,14.20
2019-05-09T13:54:44.759Z,14.40
2019-05-09T13:57:15.270Z,14.50
2019-05-09T13:59:48.383Z,14.60
2019-05-09T14:02:18.866Z,14.60
2019-05-09T14:04:49.577Z,14.70
2019-05-09T14:07:20.012Z,14.70
2019-05-09T14:09:50.479Z,14.80
2019-05-09T14:12:21.100Z,14.80
2019-05-09T14:14:51.636Z,14.90
2019-05-09T14:17:43.515Z,15.00
2019-05-09T14:19:54.290Z,15.20
2019-05-09T14:22:24.884Z,15.50
2019-05-09T14:24:55.322Z,15.70
2019-05-09T14:27:28.365Z,16.00
2019-05-09T14:29:59.295Z,16.20
2019-05-09T14:32:34.791Z,16.60
2019-05-09T14:35:03.089Z,17.10
2019-05-09T14:37:33.545Z,17.60
2019-05-09T14:40:05.392Z,18.10
2019-05-09T14:42:36.134Z,18.60
2019-05-09T14:45:08.472Z,18.90
2019-05-09T14:47:42.192Z,19.10
2019-05-09T14:50:11.561Z,19.30
2019-05-09T14:52:42.001Z,19.40
2019-05-09T14:55:12.571Z,19.50
2019-05-09T14:57:43.258Z,19.60
2019-05-09T15:00:13.864Z,19.60
2019-05-09T15:02:44.459Z,19.60
2019-05-09T15:05:14.921Z,19.20
2019-05-09T15:07:47.658Z,18.90
2019-05-09T15:10:18.885Z,18.90
2019-05-09T15:12:49.567Z,18.90
2019-05-09T15:15:20.126Z,19.10
2019-05-09T15:17:50.719Z,19.10
2019-05-09T15:20:21.182Z,19.00
2019-05-09T15:22:51.660Z,18.90
2019-05-09T15:25:22.147Z,18.70
2019-05-09T15:27:52.701Z,18.70
2019-05-09T15:30:23.190Z,18.80
2019-05-09T15:32:53.942Z,18.70
2019-05-09T15:35:24.631Z,18.80
2019-05-09T15:37:55.357Z,18.80
2019-05-09T15:40:28.219Z,18.80
2019-05-09T15:42:58.757Z,18.50
2019-05-09T15:45:31.821Z,18.40
2019-05-09T15:48:02.301Z,18.30
2019-05-09T15:50:32.830Z,18.10
2019-05-09T15:53:03.288Z,18.00
2019-05-09T15:55:34.005Z,17.80
2019-05-09T15:58:04.650Z,17.80
2019-05-09T16:00:35.119Z,17.80
2019-05-09T16:03:06.003Z,17.90
2019-05-09T16:05:38.509Z,18.00
2019-05-09T16:08:11.408Z,18.20
2019-05-09T16:10:41.361Z,18.40
2019-05-09T16:13:11.790Z,18.50
2019-05-09T16:15:42.269Z,18.60
2019-05-09T16:18:12.868Z,18.70
2019-05-09T16:20:43.869Z,18.80
2019-05-09T16:23:14.430Z,18.80
2019-05-09T16:25:44.914Z,18.80
2019-05-09T16:28:15.420Z,18.70
2019-05-09T16:30:48.205Z,18.50
2019-05-09T16:33:18.550Z,18.30
2019-05-09T16:35:52.624Z,18.10
2019-05-09T16:38:21.799Z,17.80
2019-05-09T16:40:52.301Z,17.60
2019-05-09T16:43:22.915Z,17.40
2019-05-09T16:45:53.405Z,17.30
2019-05-09T16:48:23.896Z,17.10
2019-05-09T16:51:03.183Z,17.00
2019-05-09T16:53:27.813Z,16.90
2019-05-09T16:55:59.173Z,17.00
2019-05-09T16:58:30.278Z,17.10
2019-05-09T17:01:00.757Z,17.30
2019-05-09T17:03:31.360Z,17.50
2019-05-09T17:06:01.880Z,17.50
2019-05-09T17:08:32.614Z,17.50
2019-05-09T17:11:03.039Z,17.40
2019-05-09T17:13:33.699Z,17.40
2019-05-09T17:16:04.251Z,17.50
2019-05-09T17:18:34.830Z,17.30
2019-05-09T17:21:24.458Z,17.20
2019-05-09T17:23:58.205Z,17.10
2019-05-09T17:26:28.444Z,17.00
2019-05-09T17:28:58.949Z,16.90
2019-05-09T17:31:29.517Z,16.60
2019-05-09T17:34:00.041Z,16.30
2019-05-09T17:36:30.477Z,16.20
2019-05-09T17:39:01.425Z,16.00
2019-05-09T17:41:31.867Z,15.90
2019-05-09T17:44:02.390Z,15.80
2019-05-09T17:46:32.827Z,15.70
2019-05-09T17:49:03.287Z,15.60
2019-05-09T17:51:36.347Z,15.50
2019-05-09T17:54:08.109Z,15.30
2019-05-09T17:56:38.443Z,15.30
2019-05-09T17:59:08.852Z,15.30
2019-05-09T18:01:39.576Z,15.30
2019-05-09T18:04:10.519Z,15.10
2019-05-09T18:06:40.991Z,15.20
2019-05-09T18:09:11.731Z,15.20
2019-05-09T18:11:42.179Z,15.20
2019-05-09T18:14:12.668Z,15.20
2019-05-09T18:16:43.121Z,15.10
2019-05-09T18:19:13.965Z,15.10
2019-05-09T18:21:50.597Z,15.00
2019-05-09T18:24:17.633Z,15.00
2019-05-09T18:26:48.363Z,15.00
2019-05-09T18:29:18.809Z,15.00
2019-05-09T18:32:07.719Z,15.00
2019-05-09T18:34:38.150Z,15.00
2019-05-09T18:37:08.640Z,14.90
2019-05-09T18:39:39.250Z,14.90
2019-05-09T18:42:09.964Z,14.80
2019-05-09T18:44:42.425Z,14.60
2019-05-09T18:47:13.071Z,14.50
2019-05-09T18:49:43.581Z,14.50
2019-05-09T18:52:14.021Z,14.40
2019-05-09T18:54:44.812Z,14.20
2019-05-09T18:57:15.440Z,14.00
2019-05-09T18:59:45.941Z,14.00
2019-05-09T19:02:16.438Z,13.80
2019-05-09T19:04:46.901Z,13.70
2019-05-09T19:07:22.348Z,13.60
2019-05-09T19:09:49.618Z,13.50
2019-05-09T19:12:20.036Z,13.40
2019-05-09T19:14:50.705Z,13.40
2019-05-09T19:17:40.124Z,13.40
2019-05-09T19:20:25.446Z,13.30
2019-05-09T19:22:55.884Z,13.30
2019-05-09T19:25:26.404Z,13.30
2019-05-09T19:27:56.879Z,13.40
2019-05-09T19:30:29.656Z,13.30
2019-05-09T19:33:00.218Z,13.30
2019-05-09T19:35:30.685Z,13.30
2019-05-09T19:38:01.170Z,13.30
2019-05-09T19:40:31.798Z,13.30
2019-05-09T19:43:02.628Z,13.30
2019-05-09T19:45:33.136Z,13.30
2019-05-09T19:48:03.591Z,13.30
2019-05-09T19:50:34.057Z,13.30
2019-05-09T19:53:04.619Z,13.30
2019-05-09T19:55:35.273Z,13.30
2019-05-09T19:58:05.808Z,13.30
2019-05-09T20:00:36.653Z,13.40
2019-05-09T20:03:07.310Z,13.10
2019-05-09T20:05:37.797Z,13.20
2019-05-09T20:08:08.356Z,13.30
2019-05-09T20:10:56.678Z,13.20
2019-05-09T20:13:32.319Z,13.30
2019-05-09T20:16:02.875Z,13.30
2019-05-09T20:18:33.357Z,13.30
2019-05-09T20:21:04.670Z,13.30
2019-05-09T20:23:35.467Z,13.30
2019-05-09T20:26:06.479Z,13.20
2019-05-09T20:28:37.271Z,13.30
2019-05-09T20:31:08.046Z,13.30
2019-05-09T20:33:38.838Z,13.30
2019-05-09T20:36:09.356Z,13.30
2019-05-09T20:38:39.991Z,13.30
2019-05-09T20:41:10.649Z,13.30
2019-05-09T20:43:41.548Z,13.30
2019-05-09T20:46:12.176Z,13.20
2019-05-09T20:48:42.923Z,13.20
2019-05-09T20:51:13.613Z,13.20
2019-05-09T20:53:44.246Z,13.20
2019-05-09T20:56:15.247Z,13.00
2019-05-09T20:58:45.920Z,13.00
2019-05-09T21:01:16.605Z,13.10
2019-05-09T21:03:59.431Z,13.00
2019-05-09T21:06:19.827Z,13.00
2019-05-09T21:08:50.482Z,13.00
2019-05-09T21:11:21.156Z,13.00
2019-05-09T21:13:51.734Z,12.90
2019-05-09T21:16:22.557Z,12.90
2019-05-09T21:18:53.167Z,12.80
2019-05-09T21:21:23.894Z,12.70
2019-05-09T21:23:54.542Z,12.70
2019-05-09T21:26:25.171Z,12.60
2019-05-09T21:28:55.875Z,12.60
2019-05-09T21:31:26.520Z,12.50
2019-05-09T21:33:57.163Z,12.50
2019-05-09T21:36:27.690Z,12.50
2019-05-09T21:38:58.083Z,12.40
2019-05-09T21:41:28.555Z,12.40
2019-05-09T21:43:58.935Z,12.40
2019-05-09T21:46:29.286Z,12.30
2019-05-09T21:48:59.738Z,12.40
2019-05-09T21:51:30.191Z,12.30
2019-05-09T21:54:00.622Z,12.30
2019-05-09T21:56:31.080Z,12.30
2019-05-09T21:59:01.478Z,12.40
2019-05-09T22:01:32.282Z,12.30
2019-05-09T22:04:02.806Z,12.30
2019-05-09T22:06:33.241Z,12.30
2019-05-09T22:09:05.836Z,12.30
2019-05-09T22:11:36.330Z,12.30
2019-05-09T22:14:06.825Z,12.30
2019-05-09T22:16:37.375Z,12.30
2019-05-09T22:19:07.993Z,12.30
2019-05-09T22:21:38.423Z,12.20
2019-05-09T22:24:08.912Z,12.30
2019-05-09T22:26:39.317Z,12.30
2019-05-09T22:29:09.769Z,12.30
2019-05-09T22:31:40.283Z,12.30
2019-05-09T22:34:10.808Z,12.30
2019-05-09T22:36:41.204Z,12.30
2019-05-09T22:39:11.613Z,12.20
2019-05-09T22:41:42.041Z,12.30
2019-05-09T22:44:12.520Z,12.30
2019-05-09T22:46:42.902Z,12.30
2019-05-09T22:49:13.338Z,12.40
2019-05-09T22:51:43.738Z,12.40
2019-05-09T22:54:14.168Z,12.40
2019-05-09T22:56:44.554Z,12.30
2019-05-09T22:59:15.016Z,12.30
2019-05-09T23:01:45.485Z,12.40
2019-05-09T23:04:15.988Z,12.40
2019-05-09T23:06:46.600Z,12.30
2019-05-09T23:09:17.034Z,12.20
2019-05-09T23:11:47.462Z,12.20
2019-05-09T23:14:17.861Z,12.10
2019-05-09T23:16:50.553Z,12.00
2019-05-09T23:19:20.705Z,11.90
2019-05-09T23:21:52.555Z,11.80
2019-05-09T23:24:28.440Z,11.70
2019-05-09T23:26:56.916Z,11.60
2019-05-09T23:29:27.367Z,11.70
2019-05-09T23:32:22.754Z,11.60
2019-05-09T23:34:53.469Z,11.60
2019-05-09T23:37:23.927Z,11.40
2019-05-09T23:39:54.918Z,11.40
2019-05-09T23:42:25.379Z,11.40
2019-05-09T23:44:56.012Z,11.40
2019-05-09T23:47:26.489Z,11.30
2019-05-09T23:49:56.934Z,11.20
2019-05-09T23:52:27.377Z,11.20
2019-05-09T23:55:15.839Z,11.10
2019-05-09T23:58:03.743Z,11.00
